Portada
METAR-TAF:

METAR-TAF

Aeropuertos :

Sídney, Australia

Aeropuerto Internacional Kingsford Smith

latitud: 33-57S, longitud: 151-11E, altitud: 6 m

Observación

El informe se hizo hace 24 minutos, a las 01:30 UTC
Viento 7 kt del oeste-noroeste
Temperatura 15°C
Humedad 67%
Presión 1021 hPa
Visibilidad 10 km o más
sin nubes por debajo de 1500 m y sin presencia de cumulonimbus.

METAR: YSSY 280130Z 29007KT CAVOK 15/09 Q1021 NOSIG

Hora: 11:54 (01:54 UTC)

Pronóstico

El informe se hizo hace 2 horas y 29 minutos, a las 23:25 UTC
Pronóstico válido del 28 a las 00 UTC al 29 a las 06 UTC
Viento 8 kt del oeste-noroeste
Visibilidad 10 km o más
Escasas nubes a una altura de 2500 ft
Cielo nuboso a una altura de 10000 ft
A partir de las 29 a las 0000 UTC
Viento 8 kt del oeste-suroeste
Visibilidad 10 km o más
sin nubes por debajo de 1500 m y sin presencia de cumulonimbus.

TAF: YSSY 272325Z 2800/2906 29008KT 9999 FEW025 BKN100 FM290000 25008KT CAVOK

Observaciones y pronósticos meteorológicos de más de 4000 aeropuertos (mensajes METAR y TAF).

Los puntos amarillos y rojos representan las estaciones disponibles.

Ponga el ratón en el punto deseado para ver el nombre de la estación.

Haga clic para ver las observaciones y los pronósticos meteorológicos.

Para cambiar el mapa : haga clic en los botones verdes con una cruz de color negro para hacer un zoom, en el botón verde con un guión para alejar o en las flechas verdes para mapas adyacentes.


METAR-TAF: